sensor_id;sensor_type;location;lat;lon;timestamp;pressure;altitude;pressure_sealevel;temperature
12430;BMP280;6279;42.192;24.326;2023-08-21T00:00:28;99093.47;;;23.99
12430;BMP280;6279;42.192;24.326;2023-08-21T00:02:53;99085.00;;;24.02
12430;BMP280;6279;42.192;24.326;2023-08-21T00:05:19;99090.91;;;24.04
12430;BMP280;6279;42.192;24.326;2023-08-21T00:07:44;99080.88;;;24.11
12430;BMP280;6279;42.192;24.326;2023-08-21T00:10:11;99086.44;;;24.09
12430;BMP280;6279;42.192;24.326;2023-08-21T00:12:39;99091.44;;;24.06
12430;BMP280;6279;42.192;24.326;2023-08-21T00:15:05;99083.78;;;24.09
12430;BMP280;6279;42.192;24.326;2023-08-21T00:17:30;99084.56;;;24.10
12430;BMP280;6279;42.192;24.326;2023-08-21T00:19:56;99087.22;;;24.10
12430;BMP280;6279;42.192;24.326;2023-08-21T00:22:22;99082.97;;;24.09
12430;BMP280;6279;42.192;24.326;2023-08-21T00:24:47;99088.84;;;24.11
12430;BMP280;6279;42.192;24.326;2023-08-21T00:27:13;99097.34;;;24.13
12430;BMP280;6279;42.192;24.326;2023-08-21T00:29:38;99090.41;;;24.07
12430;BMP280;6279;42.192;24.326;2023-08-21T00:32:03;99094.94;;;23.90
12430;BMP280;6279;42.192;24.326;2023-08-21T00:34:29;99087.84;;;23.96
12430;BMP280;6279;42.192;24.326;2023-08-21T00:36:54;99105.72;;;24.00
12430;BMP280;6279;42.192;24.326;2023-08-21T00:39:19;99108.88;;;23.97
12430;BMP280;6279;42.192;24.326;2023-08-21T00:41:45;99100.16;;;23.80
12430;BMP280;6279;42.192;24.326;2023-08-21T00:44:10;99097.75;;;23.79
12430;BMP280;6279;42.192;24.326;2023-08-21T00:46:36;99102.44;;;23.72
12430;BMP280;6279;42.192;24.326;2023-08-21T00:49:01;99107.00;;;23.76
12430;BMP280;6279;42.192;24.326;2023-08-21T00:51:28;99098.47;;;23.74
12430;BMP280;6279;42.192;24.326;2023-08-21T00:53:53;99111.66;;;23.65
12430;BMP280;6279;42.192;24.326;2023-08-21T00:56:19;99103.59;;;23.60
12430;BMP280;6279;42.192;24.326;2023-08-21T00:58:44;99105.00;;;23.62
12430;BMP280;6279;42.192;24.326;2023-08-21T01:01:11;99105.00;;;23.62
12430;BMP280;6279;42.192;24.326;2023-08-21T01:03:37;99102.13;;;23.69
12430;BMP280;6279;42.192;24.326;2023-08-21T01:06:03;99105.84;;;23.68
12430;BMP280;6279;42.192;24.326;2023-08-21T01:08:48;99099.97;;;23.66
12430;BMP280;6279;42.192;24.326;2023-08-21T01:11:19;99088.81;;;23.64
12430;BMP280;6279;42.192;24.326;2023-08-21T01:13:59;99100.53;;;23.68
12430;BMP280;6279;42.192;24.326;2023-08-21T01:16:27;99099.78;;;23.51
12430;BMP280;6279;42.192;24.326;2023-08-21T01:18:54;99097.69;;;23.53
12430;BMP280;6279;42.192;24.326;2023-08-21T01:21:20;99095.06;;;23.58
12430;BMP280;6279;42.192;24.326;2023-08-21T01:23:45;99099.72;;;23.67
12430;BMP280;6279;42.192;24.326;2023-08-21T01:26:10;99097.81;;;23.63
12430;BMP280;6279;42.192;24.326;2023-08-21T01:28:36;99096.22;;;23.62
12430;BMP280;6279;42.192;24.326;2023-08-21T01:31:11;99097.28;;;23.61
12430;BMP280;6279;42.192;24.326;2023-08-21T01:33:44;99095.88;;;23.58
12430;BMP280;6279;42.192;24.326;2023-08-21T01:36:10;99094.63;;;23.61
12430;BMP280;6279;42.192;24.326;2023-08-21T01:38:36;99099.13;;;23.60
12430;BMP280;6279;42.192;24.326;2023-08-21T01:41:02;99098.63;;;23.63
12430;BMP280;6279;42.192;24.326;2023-08-21T01:43:28;99097.56;;;23.64
12430;BMP280;6279;42.192;24.326;2023-08-21T01:45:54;99096.53;;;23.65
12430;BMP280;6279;42.192;24.326;2023-08-21T01:48:19;99099.34;;;23.59
12430;BMP280;6279;42.192;24.326;2023-08-21T01:50:45;99094.16;;;23.48
12430;BMP280;6279;42.192;24.326;2023-08-21T01:53:10;99103.84;;;23.37
12430;BMP280;6279;42.192;24.326;2023-08-21T01:55:36;99101.47;;;23.41
12430;BMP280;6279;42.192;24.326;2023-08-21T01:58:01;99096.28;;;23.46
12430;BMP280;6279;42.192;24.326;2023-08-21T02:00:26;99100.03;;;23.33
12430;BMP280;6279;42.192;24.326;2023-08-21T02:02:52;99105.44;;;23.22
12430;BMP280;6279;42.192;24.326;2023-08-21T02:05:17;99103.19;;;23.30
12430;BMP280;6279;42.192;24.326;2023-08-21T02:07:42;99105.19;;;23.24
12430;BMP280;6279;42.192;24.326;2023-08-21T02:10:08;99102.88;;;23.27
12430;BMP280;6279;42.192;24.326;2023-08-21T02:12:34;99100.13;;;23.22
12430;BMP280;6279;42.192;24.326;2023-08-21T02:14:59;99098.53;;;23.21
12430;BMP280;6279;42.192;24.326;2023-08-21T02:17:26;99095.81;;;23.16
12430;BMP280;6279;42.192;24.326;2023-08-21T02:19:51;99084.38;;;23.16
12430;BMP280;6279;42.192;24.326;2023-08-21T02:22:17;99090.81;;;23.20
12430;BMP280;6279;42.192;24.326;2023-08-21T02:24:42;99090.41;;;23.28
12430;BMP280;6279;42.192;24.326;2023-08-21T02:27:07;99094.56;;;23.24
12430;BMP280;6279;42.192;24.326;2023-08-21T02:29:33;99086.94;;;23.27
12430;BMP280;6279;42.192;24.326;2023-08-21T02:31:58;99080.50;;;23.39
12430;BMP280;6279;42.192;24.326;2023-08-21T02:34:24;99076.16;;;23.33
12430;BMP280;6279;42.192;24.326;2023-08-21T02:36:49;99074.53;;;23.32
12430;BMP280;6279;42.192;24.326;2023-08-21T02:39:15;99081.47;;;23.33
12430;BMP280;6279;42.192;24.326;2023-08-21T02:41:40;99074.78;;;23.31
12430;BMP280;6279;42.192;24.326;2023-08-21T02:44:05;99079.16;;;23.37
12430;BMP280;6279;42.192;24.326;2023-08-21T02:46:31;99089.25;;;23.40
12430;BMP280;6279;42.192;24.326;2023-08-21T02:48:58;99082.75;;;23.31
12430;BMP280;6279;42.192;24.326;2023-08-21T02:51:24;99085.16;;;23.32
12430;BMP280;6279;42.192;24.326;2023-08-21T02:53:49;99089.06;;;23.25
12430;BMP280;6279;42.192;24.326;2023-08-21T02:56:14;99085.69;;;23.13
12430;BMP280;6279;42.192;24.326;2023-08-21T02:58:40;99084.31;;;23.11
12430;BMP280;6279;42.192;24.326;2023-08-21T03:01:05;99083.22;;;23.07
12430;BMP280;6279;42.192;24.326;2023-08-21T03:03:30;99086.66;;;23.08
12430;BMP280;6279;42.192;24.326;2023-08-21T03:05:57;99080.78;;;23.06
12430;BMP280;6279;42.192;24.326;2023-08-21T03:08:23;99088.72;;;23.06
12430;BMP280;6279;42.192;24.326;2023-08-21T03:10:49;99084.47;;;23.05
12430;BMP280;6279;42.192;24.326;2023-08-21T03:13:15;99089.72;;;23.00
12430;BMP280;6279;42.192;24.326;2023-08-21T03:15:40;99087.13;;;22.88
12430;BMP280;6279;42.192;24.326;2023-08-21T03:18:05;99092.94;;;22.86
12430;BMP280;6279;42.192;24.326;2023-08-21T03:20:31;99088.38;;;22.81
12430;BMP280;6279;42.192;24.326;2023-08-21T03:22:56;99091.31;;;22.85
12430;BMP280;6279;42.192;24.326;2023-08-21T03:25:21;99091.66;;;22.88
12430;BMP280;6279;42.192;24.326;2023-08-21T03:27:47;99101.38;;;22.83
12430;BMP280;6279;42.192;24.326;2023-08-21T03:30:15;99101.81;;;22.75
12430;BMP280;6279;42.192;24.326;2023-08-21T03:32:40;99103.22;;;22.66
12430;BMP280;6279;42.192;24.326;2023-08-21T03:35:06;99109.09;;;22.68
12430;BMP280;6279;42.192;24.326;2023-08-21T03:37:32;99115.75;;;22.70
12430;BMP280;6279;42.192;24.326;2023-08-21T03:39:57;99102.50;;;22.70
12430;BMP280;6279;42.192;24.326;2023-08-21T03:42:22;99114.03;;;22.64
12430;BMP280;6279;42.192;24.326;2023-08-21T03:44:48;99108.53;;;22.66
12430;BMP280;6279;42.192;24.326;2023-08-21T03:47:16;99114.38;;;22.68
12430;BMP280;6279;42.192;24.326;2023-08-21T03:49:41;99112.41;;;22.75
12430;BMP280;6279;42.192;24.326;2023-08-21T03:52:06;99112.16;;;22.76
12430;BMP280;6279;42.192;24.326;2023-08-21T03:54:32;99106.13;;;22.81
12430;BMP280;6279;42.192;24.326;2023-08-21T03:56:57;99107.41;;;22.94
12430;BMP280;6279;42.192;24.326;2023-08-21T03:59:23;99112.53;;;23.01
12430;BMP280;6279;42.192;24.326;2023-08-21T04:01:49;99110.31;;;23.09
12430;BMP280;6279;42.192;24.326;2023-08-21T04:04:14;99109.06;;;23.16
12430;BMP280;6279;42.192;24.326;2023-08-21T04:06:40;99115.84;;;23.08
12430;BMP280;6279;42.192;24.326;2023-08-21T04:09:05;99115.75;;;23.19
12430;BMP280;6279;42.192;24.326;2023-08-21T04:11:32;99116.41;;;23.26
12430;BMP280;6279;42.192;24.326;2023-08-21T04:13:58;99121.38;;;23.38
12430;BMP280;6279;42.192;24.326;2023-08-21T04:16:24;99121.50;;;23.48
12430;BMP280;6279;42.192;24.326;2023-08-21T04:18:49;99129.53;;;23.53
12430;BMP280;6279;42.192;24.326;2023-08-21T04:21:15;99120.66;;;23.64
12430;BMP280;6279;42.192;24.326;2023-08-21T04:23:40;99111.75;;;23.74
12430;BMP280;6279;42.192;24.326;2023-08-21T04:26:06;99120.13;;;23.83
12430;BMP280;6279;42.192;24.326;2023-08-21T04:28:33;99116.50;;;23.94
12430;BMP280;6279;42.192;24.326;2023-08-21T04:30:59;99114.81;;;24.04
12430;BMP280;6279;42.192;24.326;2023-08-21T04:33:28;99106.94;;;24.14
12430;BMP280;6279;42.192;24.326;2023-08-21T04:35:54;99118.78;;;24.27
12430;BMP280;6279;42.192;24.326;2023-08-21T04:38:19;99115.19;;;24.38
12430;BMP280;6279;42.192;24.326;2023-08-21T04:40:44;99115.34;;;24.53
12430;BMP280;6279;42.192;24.326;2023-08-21T04:43:10;99126.31;;;24.61
12430;BMP280;6279;42.192;24.326;2023-08-21T04:45:35;99125.00;;;24.63
12430;BMP280;6279;42.192;24.326;2023-08-21T04:48:06;99119.84;;;24.78
12430;BMP280;6279;42.192;24.326;2023-08-21T04:50:31;99116.78;;;24.96
12430;BMP280;6279;42.192;24.326;2023-08-21T04:52:56;99116.94;;;25.15
12430;BMP280;6279;42.192;24.326;2023-08-21T04:55:22;99116.22;;;25.29
12430;BMP280;6279;42.192;24.326;2023-08-21T04:57:47;99114.22;;;25.41
12430;BMP280;6279;42.192;24.326;2023-08-21T05:00:13;99105.03;;;25.68
12430;BMP280;6279;42.192;24.326;2023-08-21T05:02:40;99107.22;;;25.81
12430;BMP280;6279;42.192;24.326;2023-08-21T05:05:06;99110.25;;;25.99
12430;BMP280;6279;42.192;24.326;2023-08-21T05:07:31;99105.78;;;26.14
12430;BMP280;6279;42.192;24.326;2023-08-21T05:09:59;99115.94;;;26.41
12430;BMP280;6279;42.192;24.326;2023-08-21T05:12:26;99121.63;;;26.79
12430;BMP280;6279;42.192;24.326;2023-08-21T05:14:51;99113.59;;;27.13
12430;BMP280;6279;42.192;24.326;2023-08-21T05:17:18;99121.91;;;27.22
12430;BMP280;6279;42.192;24.326;2023-08-21T05:19:43;99118.63;;;27.49
12430;BMP280;6279;42.192;24.326;2023-08-21T05:22:08;99117.59;;;27.40
12430;BMP280;6279;42.192;24.326;2023-08-21T05:24:34;99116.97;;;27.82
12430;BMP280;6279;42.192;24.326;2023-08-21T05:26:59;99116.00;;;28.16
12430;BMP280;6279;42.192;24.326;2023-08-21T05:29:24;99121.50;;;28.39
12430;BMP280;6279;42.192;24.326;2023-08-21T05:31:50;99119.13;;;28.75
12430;BMP280;6279;42.192;24.326;2023-08-21T05:34:16;99119.88;;;29.13
12430;BMP280;6279;42.192;24.326;2023-08-21T05:36:41;99123.63;;;29.17
12430;BMP280;6279;42.192;24.326;2023-08-21T05:39:07;99121.22;;;29.44
12430;BMP280;6279;42.192;24.326;2023-08-21T05:41:33;99123.91;;;29.67
12430;BMP280;6279;42.192;24.326;2023-08-21T05:43:59;99125.53;;;29.91
12430;BMP280;6279;42.192;24.326;2023-08-21T05:46:24;99122.75;;;30.18
12430;BMP280;6279;42.192;24.326;2023-08-21T05:48:50;99125.44;;;30.18
12430;BMP280;6279;42.192;24.326;2023-08-21T05:51:15;99131.16;;;30.53
12430;BMP280;6279;42.192;24.326;2023-08-21T05:53:40;99132.28;;;30.84
12430;BMP280;6279;42.192;24.326;2023-08-21T05:56:06;99133.97;;;30.80
12430;BMP280;6279;42.192;24.326;2023-08-21T05:58:31;99125.69;;;31.26
12430;BMP280;6279;42.192;24.326;2023-08-21T06:00:58;99130.25;;;31.56
12430;BMP280;6279;42.192;24.326;2023-08-21T06:03:23;99134.47;;;31.89
12430;BMP280;6279;42.192;24.326;2023-08-21T06:05:49;99126.66;;;32.27
12430;BMP280;6279;42.192;24.326;2023-08-21T06:08:14;99126.19;;;32.73
12430;BMP280;6279;42.192;24.326;2023-08-21T06:10:40;99130.91;;;33.10
12430;BMP280;6279;42.192;24.326;2023-08-21T06:13:05;99134.63;;;33.44
12430;BMP280;6279;42.192;24.326;2023-08-21T06:15:31;99132.28;;;33.81
12430;BMP280;6279;42.192;24.326;2023-08-21T06:17:57;99138.81;;;34.35
12430;BMP280;6279;42.192;24.326;2023-08-21T06:20:23;99148.06;;;34.59
12430;BMP280;6279;42.192;24.326;2023-08-21T06:22:48;99144.59;;;35.00
12430;BMP280;6279;42.192;24.326;2023-08-21T06:25:14;99148.25;;;35.12
12430;BMP280;6279;42.192;24.326;2023-08-21T06:27:39;99149.16;;;35.32
12430;BMP280;6279;42.192;24.326;2023-08-21T06:30:05;99151.66;;;35.54
12430;BMP280;6279;42.192;24.326;2023-08-21T06:32:31;99154.13;;;35.75
12430;BMP280;6279;42.192;24.326;2023-08-21T06:34:56;99149.38;;;35.73
12430;BMP280;6279;42.192;24.326;2023-08-21T06:37:21;99146.53;;;36.06
12430;BMP280;6279;42.192;24.326;2023-08-21T06:39:47;99152.66;;;36.31
12430;BMP280;6279;42.192;24.326;2023-08-21T06:42:12;99150.72;;;36.23
12430;BMP280;6279;42.192;24.326;2023-08-21T06:44:38;99145.34;;;36.72
12430;BMP280;6279;42.192;24.326;2023-08-21T06:47:03;99139.16;;;37.23
12430;BMP280;6279;42.192;24.326;2023-08-21T06:49:29;99147.19;;;37.63
12430;BMP280;6279;42.192;24.326;2023-08-21T06:51:54;99142.03;;;38.05
12430;BMP280;6279;42.192;24.326;2023-08-21T06:54:19;99138.44;;;38.13
12430;BMP280;6279;42.192;24.326;2023-08-21T06:56:45;99140.56;;;38.08
12430;BMP280;6279;42.192;24.326;2023-08-21T06:59:10;99142.25;;;38.36
12430;BMP280;6279;42.192;24.326;2023-08-21T07:01:35;99141.41;;;38.70
12430;BMP280;6279;42.192;24.326;2023-08-21T07:04:01;99136.34;;;39.23
12430;BMP280;6279;42.192;24.326;2023-08-21T07:06:30;99142.56;;;39.50
12430;BMP280;6279;42.192;24.326;2023-08-21T07:08:55;99145.41;;;39.69
12430;BMP280;6279;42.192;24.326;2023-08-21T07:11:21;99138.38;;;39.98
12430;BMP280;6279;42.192;24.326;2023-08-21T07:13:46;99140.63;;;40.42
12430;BMP280;6279;42.192;24.326;2023-08-21T07:16:12;99139.66;;;40.49
12430;BMP280;6279;42.192;24.326;2023-08-21T07:18:38;99133.13;;;40.54
12430;BMP280;6279;42.192;24.326;2023-08-21T07:21:04;99134.72;;;40.73
12430;BMP280;6279;42.192;24.326;2023-08-21T07:23:30;99131.59;;;41.09
12430;BMP280;6279;42.192;24.326;2023-08-21T07:25:57;99131.56;;;41.46
12430;BMP280;6279;42.192;24.326;2023-08-21T07:28:23;99127.47;;;41.77
12430;BMP280;6279;42.192;24.326;2023-08-21T07:30:54;99123.03;;;41.91
12430;BMP280;6279;42.192;24.326;2023-08-21T07:33:20;99120.31;;;42.17
12430;BMP280;6279;42.192;24.326;2023-08-21T07:35:45;99120.16;;;42.32
12430;BMP280;6279;42.192;24.326;2023-08-21T07:38:10;99115.72;;;42.75
12430;BMP280;6279;42.192;24.326;2023-08-21T07:40:36;99117.91;;;43.24
12430;BMP280;6279;42.192;24.326;2023-08-21T07:43:01;99118.56;;;43.46
12430;BMP280;6279;42.192;24.326;2023-08-21T07:45:26;99123.59;;;43.44
12430;BMP280;6279;42.192;24.326;2023-08-21T07:47:52;99116.19;;;43.87
12430;BMP280;6279;42.192;24.326;2023-08-21T07:50:17;99122.03;;;43.82
12430;BMP280;6279;42.192;24.326;2023-08-21T07:52:43;99120.38;;;44.73
12430;BMP280;6279;42.192;24.326;2023-08-21T07:55:08;99111.91;;;45.19
12430;BMP280;6279;42.192;24.326;2023-08-21T07:57:33;99116.06;;;44.79
12430;BMP280;6279;42.192;24.326;2023-08-21T07:59:59;99114.25;;;44.37
12430;BMP280;6279;42.192;24.326;2023-08-21T08:02:24;99103.66;;;45.23
12430;BMP280;6279;42.192;24.326;2023-08-21T08:04:50;99103.75;;;45.47
12430;BMP280;6279;42.192;24.326;2023-08-21T08:07:15;99106.94;;;46.17
12430;BMP280;6279;42.192;24.326;2023-08-21T08:09:41;99101.78;;;46.29
12430;BMP280;6279;42.192;24.326;2023-08-21T08:12:06;99098.66;;;46.41
12430;BMP280;6279;42.192;24.326;2023-08-21T08:14:32;99103.34;;;46.27
12430;BMP280;6279;42.192;24.326;2023-08-21T08:16:57;99093.19;;;45.86
12430;BMP280;6279;42.192;24.326;2023-08-21T08:19:23;99092.53;;;44.78
12430;BMP280;6279;42.192;24.326;2023-08-21T08:21:48;99098.63;;;46.31
12430;BMP280;6279;42.192;24.326;2023-08-21T08:24:14;99084.28;;;47.61
12430;BMP280;6279;42.192;24.326;2023-08-21T08:26:39;99084.78;;;48.71
12430;BMP280;6279;42.192;24.326;2023-08-21T08:29:06;99083.94;;;49.33
12430;BMP280;6279;42.192;24.326;2023-08-21T08:31:31;99079.66;;;50.26
12430;BMP280;6279;42.192;24.326;2023-08-21T08:33:56;99076.44;;;50.08
12430;BMP280;6279;42.192;24.326;2023-08-21T08:36:22;99075.06;;;50.38
12430;BMP280;6279;42.192;24.326;2023-08-21T08:38:47;99083.56;;;49.05
12430;BMP280;6279;42.192;24.326;2023-08-21T08:41:36;99068.34;;;46.48
12430;BMP280;6279;42.192;24.326;2023-08-21T08:44:04;99063.66;;;46.42
12430;BMP280;6279;42.192;24.326;2023-08-21T08:46:30;99074.72;;;45.87
12430;BMP280;6279;42.192;24.326;2023-08-21T08:48:56;99064.34;;;46.73
12430;BMP280;6279;42.192;24.326;2023-08-21T08:51:24;99063.31;;;47.17
12430;BMP280;6279;42.192;24.326;2023-08-21T08:53:50;99055.66;;;47.45
12430;BMP280;6279;42.192;24.326;2023-08-21T08:56:16;99053.78;;;47.28
12430;BMP280;6279;42.192;24.326;2023-08-21T08:58:41;99053.38;;;49.17
12430;BMP280;6279;42.192;24.326;2023-08-21T09:01:08;99048.84;;;47.59
12430;BMP280;6279;42.192;24.326;2023-08-21T09:03:36;99059.00;;;48.16
12430;BMP280;6279;42.192;24.326;2023-08-21T09:06:01;99054.53;;;48.61
12430;BMP280;6279;42.192;24.326;2023-08-21T09:08:27;99049.47;;;48.20
12430;BMP280;6279;42.192;24.326;2023-08-21T09:10:53;99056.28;;;47.09
12430;BMP280;6279;42.192;24.326;2023-08-21T09:13:19;99055.59;;;47.98
12430;BMP280;6279;42.192;24.326;2023-08-21T09:15:46;99050.84;;;48.71
12430;BMP280;6279;42.192;24.326;2023-08-21T09:18:15;99038.84;;;49.14
12430;BMP280;6279;42.192;24.326;2023-08-21T09:20:41;99045.84;;;46.70
12430;BMP280;6279;42.192;24.326;2023-08-21T09:23:07;99024.63;;;48.86
12430;BMP280;6279;42.192;24.326;2023-08-21T09:25:39;99026.91;;;50.32
12430;BMP280;6279;42.192;24.326;2023-08-21T09:28:06;99019.25;;;51.91
12430;BMP280;6279;42.192;24.326;2023-08-21T09:30:49;99011.53;;;48.60
12430;BMP280;6279;42.192;24.326;2023-08-21T09:33:19;99017.22;;;47.74
12430;BMP280;6279;42.192;24.326;2023-08-21T09:35:45;99012.00;;;48.23
12430;BMP280;6279;42.192;24.326;2023-08-21T09:38:11;99005.50;;;49.50
12430;BMP280;6279;42.192;24.326;2023-08-21T09:40:49;99009.91;;;48.33
12430;BMP280;6279;42.192;24.326;2023-08-21T09:43:16;99013.28;;;47.72
12430;BMP280;6279;42.192;24.326;2023-08-21T09:45:46;98996.88;;;46.10
12430;BMP280;6279;42.192;24.326;2023-08-21T09:48:13;98991.72;;;46.33
12430;BMP280;6279;42.192;24.326;2023-08-21T09:50:38;98985.66;;;47.79
12430;BMP280;6279;42.192;24.326;2023-08-21T09:53:06;98982.41;;;47.87
12430;BMP280;6279;42.192;24.326;2023-08-21T09:55:32;98979.19;;;46.99
12430;BMP280;6279;42.192;24.326;2023-08-21T09:58:01;98966.22;;;48.25
12430;BMP280;6279;42.192;24.326;2023-08-21T10:00:32;98968.75;;;49.49
12430;BMP280;6279;42.192;24.326;2023-08-21T10:03:03;98971.00;;;48.21
12430;BMP280;6279;42.192;24.326;2023-08-21T10:05:31;98970.22;;;46.88
12430;BMP280;6279;42.192;24.326;2023-08-21T10:08:00;98964.38;;;46.79
12430;BMP280;6279;42.192;24.326;2023-08-21T10:10:29;98961.22;;;46.81
12430;BMP280;6279;42.192;24.326;2023-08-21T10:12:54;98967.00;;;44.62
12430;BMP280;6279;42.192;24.326;2023-08-21T10:15:20;98970.19;;;43.97
12430;BMP280;6279;42.192;24.326;2023-08-21T10:17:45;98962.59;;;42.85
12430;BMP280;6279;42.192;24.326;2023-08-21T10:20:11;98958.25;;;41.91
12430;BMP280;6279;42.192;24.326;2023-08-21T10:22:43;98948.53;;;41.20
12430;BMP280;6279;42.192;24.326;2023-08-21T10:25:23;98951.94;;;39.80
12430;BMP280;6279;42.192;24.326;2023-08-21T10:27:57;98959.56;;;38.69
12430;BMP280;6279;42.192;24.326;2023-08-21T10:30:27;98958.91;;;38.33
12430;BMP280;6279;42.192;24.326;2023-08-21T10:32:55;98948.41;;;39.80
12430;BMP280;6279;42.192;24.326;2023-08-21T10:35:22;98957.31;;;41.10
12430;BMP280;6279;42.192;24.326;2023-08-21T10:40:33;98945.31;;;41.37
12430;BMP280;6279;42.192;24.326;2023-08-21T10:42:59;98943.56;;;41.73
12430;BMP280;6279;42.192;24.326;2023-08-21T10:45:25;98952.13;;;41.02
12430;BMP280;6279;42.192;24.326;2023-08-21T10:47:50;98951.97;;;40.36
12430;BMP280;6279;42.192;24.326;2023-08-21T10:50:16;98944.97;;;40.17
12430;BMP280;6279;42.192;24.326;2023-08-21T10:52:43;98948.91;;;39.85
12430;BMP280;6279;42.192;24.326;2023-08-21T10:55:15;98950.31;;;39.31
12430;BMP280;6279;42.192;24.326;2023-08-21T10:57:41;98944.75;;;40.06
12430;BMP280;6279;42.192;24.326;2023-08-21T11:00:08;98948.09;;;41.40
12430;BMP280;6279;42.192;24.326;2023-08-21T11:02:47;98945.69;;;42.41
12430;BMP280;6279;42.192;24.326;2023-08-21T11:05:14;98948.97;;;43.34
12430;BMP280;6279;42.192;24.326;2023-08-21T11:07:48;98947.69;;;43.68
12430;BMP280;6279;42.192;24.326;2023-08-21T11:10:18;98948.41;;;43.58
12430;BMP280;6279;42.192;24.326;2023-08-21T11:12:51;98954.78;;;42.51
12430;BMP280;6279;42.192;24.326;2023-08-21T11:15:17;98946.38;;;42.05
12430;BMP280;6279;42.192;24.326;2023-08-21T11:17:50;98955.00;;;41.12
12430;BMP280;6279;42.192;24.326;2023-08-21T11:20:15;98952.22;;;39.76
12430;BMP280;6279;42.192;24.326;2023-08-21T11:22:41;98953.72;;;39.58
12430;BMP280;6279;42.192;24.326;2023-08-21T11:25:06;98959.69;;;39.48
12430;BMP280;6279;42.192;24.326;2023-08-21T11:27:32;98961.47;;;39.10
12430;BMP280;6279;42.192;24.326;2023-08-21T11:29:57;98963.56;;;38.87
12430;BMP280;6279;42.192;24.326;2023-08-21T11:32:23;98968.91;;;38.29
12430;BMP280;6279;42.192;24.326;2023-08-21T11:34:51;98972.78;;;38.17
12430;BMP280;6279;42.192;24.326;2023-08-21T11:37:18;98965.47;;;37.94
12430;BMP280;6279;42.192;24.326;2023-08-21T11:39:49;98964.06;;;37.37
12430;BMP280;6279;42.192;24.326;2023-08-21T11:42:15;98962.00;;;37.34
12430;BMP280;6279;42.192;24.326;2023-08-21T11:44:52;98951.28;;;37.26
12430;BMP280;6279;42.192;24.326;2023-08-21T11:47:19;98950.81;;;37.48
12430;BMP280;6279;42.192;24.326;2023-08-21T11:49:46;98949.22;;;37.70
12430;BMP280;6279;42.192;24.326;2023-08-21T11:52:22;98946.94;;;37.72
12430;BMP280;6279;42.192;24.326;2023-08-21T11:54:49;98959.75;;;37.72
12430;BMP280;6279;42.192;24.326;2023-08-21T11:57:15;98950.22;;;37.54
12430;BMP280;6279;42.192;24.326;2023-08-21T11:59:41;98960.00;;;36.76
12430;BMP280;6279;42.192;24.326;2023-08-21T12:02:21;98966.41;;;36.40
12430;BMP280;6279;42.192;24.326;2023-08-21T12:05:06;98962.50;;;36.29
12430;BMP280;6279;42.192;24.326;2023-08-21T12:07:32;98961.00;;;36.00
12430;BMP280;6279;42.192;24.326;2023-08-21T12:09:58;98949.81;;;35.81
12430;BMP280;6279;42.192;24.326;2023-08-21T12:12:24;98953.97;;;35.59
12430;BMP280;6279;42.192;24.326;2023-08-21T12:14:49;98945.22;;;35.53
12430;BMP280;6279;42.192;24.326;2023-08-21T12:17:14;98938.34;;;35.56
12430;BMP280;6279;42.192;24.326;2023-08-21T12:19:40;98939.97;;;35.77
12430;BMP280;6279;42.192;24.326;2023-08-21T12:22:06;98947.44;;;36.20
12430;BMP280;6279;42.192;24.326;2023-08-21T12:24:32;98948.50;;;36.59
12430;BMP280;6279;42.192;24.326;2023-08-21T12:26:57;98943.88;;;36.60
12430;BMP280;6279;42.192;24.326;2023-08-21T12:29:22;98926.25;;;36.86
12430;BMP280;6279;42.192;24.326;2023-08-21T12:31:48;98939.00;;;36.73
12430;BMP280;6279;42.192;24.326;2023-08-21T12:34:14;98935.53;;;37.08
12430;BMP280;6279;42.192;24.326;2023-08-21T12:36:39;98933.38;;;37.37
12430;BMP280;6279;42.192;24.326;2023-08-21T12:39:06;98936.91;;;37.26
12430;BMP280;6279;42.192;24.326;2023-08-21T12:41:32;98936.50;;;36.80
12430;BMP280;6279;42.192;24.326;2023-08-21T12:44:01;98926.56;;;36.72
12430;BMP280;6279;42.192;24.326;2023-08-21T12:46:28;98932.13;;;36.56
12430;BMP280;6279;42.192;24.326;2023-08-21T12:48:55;98925.38;;;36.62
12430;BMP280;6279;42.192;24.326;2023-08-21T12:51:20;98915.22;;;36.70
12430;BMP280;6279;42.192;24.326;2023-08-21T12:53:45;98919.34;;;36.88
12430;BMP280;6279;42.192;24.326;2023-08-21T12:56:11;98915.72;;;36.96
12430;BMP280;6279;42.192;24.326;2023-08-21T12:58:36;98912.59;;;37.06
12430;BMP280;6279;42.192;24.326;2023-08-21T13:01:01;98914.88;;;37.27
12430;BMP280;6279;42.192;24.326;2023-08-21T13:03:29;98904.56;;;37.44
12430;BMP280;6279;42.192;24.326;2023-08-21T13:05:54;98911.91;;;37.44
12430;BMP280;6279;42.192;24.326;2023-08-21T13:08:20;98911.56;;;37.33
12430;BMP280;6279;42.192;24.326;2023-08-21T13:10:46;98911.91;;;37.32
12430;BMP280;6279;42.192;24.326;2023-08-21T13:13:11;98911.91;;;37.08
12430;BMP280;6279;42.192;24.326;2023-08-21T13:15:37;98909.88;;;37.17
12430;BMP280;6279;42.192;24.326;2023-08-21T13:18:02;98910.94;;;37.25
12430;BMP280;6279;42.192;24.326;2023-08-21T13:20:28;98913.28;;;37.38
12430;BMP280;6279;42.192;24.326;2023-08-21T13:22:53;98910.69;;;37.30
12430;BMP280;6279;42.192;24.326;2023-08-21T13:25:20;98904.38;;;37.26
12430;BMP280;6279;42.192;24.326;2023-08-21T13:27:46;98899.47;;;37.43
12430;BMP280;6279;42.192;24.326;2023-08-21T13:30:12;98912.56;;;37.76
12430;BMP280;6279;42.192;24.326;2023-08-21T13:32:38;98912.53;;;37.88
12430;BMP280;6279;42.192;24.326;2023-08-21T13:35:03;98896.91;;;37.85
12430;BMP280;6279;42.192;24.326;2023-08-21T13:37:34;98911.34;;;37.74
12430;BMP280;6279;42.192;24.326;2023-08-21T13:39:59;98907.25;;;37.68
12430;BMP280;6279;42.192;24.326;2023-08-21T13:42:26;98907.59;;;37.78
12430;BMP280;6279;42.192;24.326;2023-08-21T13:44:56;98908.84;;;38.07
12430;BMP280;6279;42.192;24.326;2023-08-21T13:47:22;98914.69;;;38.21
12430;BMP280;6279;42.192;24.326;2023-08-21T13:49:47;98910.09;;;38.37
12430;BMP280;6279;42.192;24.326;2023-08-21T13:52:13;98904.09;;;38.58
12430;BMP280;6279;42.192;24.326;2023-08-21T13:54:38;98908.25;;;38.67
12430;BMP280;6279;42.192;24.326;2023-08-21T13:57:03;98906.13;;;38.61
12430;BMP280;6279;42.192;24.326;2023-08-21T13:59:29;98917.19;;;38.68
12430;BMP280;6279;42.192;24.326;2023-08-21T14:01:54;98914.03;;;38.66
12430;BMP280;6279;42.192;24.326;2023-08-21T14:04:19;98915.41;;;38.60
12430;BMP280;6279;42.192;24.326;2023-08-21T14:06:45;98905.53;;;38.41